الصفحة الرئيسية
METAR-TAF:

METAR-TAF

مطار :

كوتا بارو, ماليزيا

دائرة عرض: 06-10N, خط طول: 102-17E, ارتفاع: 5 متر

مراقبة الطقس الحالي

تاريخ ووقت الإصدار 1ساعة و 6 دقيقة قبل الساعة 09:00UTC
ريح 8 عقدة من الشرق, الاتجاه يتراوح بين الشمال الشرقي و الجنوب/الجنوب الشرقي
درجة الحرارة 30°درجة مئوية
الرطوبة 79%
ضغط 1007 hPa
الرؤية 10 كم أو أكثر
غيوم متفرقة على ارتفاع 1800 قدم

METAR: WMKC 260900Z 08008KT 040V160 9999 SCT018 30/26 Q1007

زمن: 18:06 (10:06 UTC)

توقعات

تاريخ ووقت الإصدار 5ساعات و 6 دقيقة قبل الساعة 05:00UTC
التوقعات صالحة من26 الساعة 06 UTC إلى 27 الساعة 06 UTC
ريح 7 عقدة من الشرق
الرؤية 10 كم أو أكثر
غيوم قليلة على ارتفاع 1800 قدم
مؤقت
من 26 الساعة 08 UTC إلى 26 الساعة 14 UTC
الرؤية: 7000 متر
غيوم قليلة على ارتفاع 1700 قدم, مزنة ركامية.
عاصفة رعدية, مطر خفيف

TAF: WMKC 260500Z 2606/2706 08007KT 9999 FEW018 TEMPO 2608/2614 7000 -TSRA FEW017CB

أرصاد الطقس والتوقعات من أكثر من 4000 مطار (تقارير الطقس للمطار METAR والتنبؤ بالطقس بالمطارTAF).

المحطات المتاحة هي النقط الصفراء والحمراء على الخريطة.

حرك المؤشر فوق النقطة لمعرفة اسم المحطة.

ثم انقر لمعرفة أرصاد وتوقعات الطقس.

لتغيير الخارطة: اضغط على الأزرار الخضراء مع رمز الصليب الأسود للتكبير. على الزر الأخضر مع شرطة للتصغير، أو على الأسهم الخضراء للخرائط المجاورة.


METAR-TAF: